Latest Weather Observations for Avalon

IDV60801

Issued at 6:34 pm EST Saturday 18 April 2015 (issued every 30 minutes, with the page automatically refreshed every 10 minutes)

About weather observations | Map of weather stations | Latest weather observations for VIC | Other Formats
Station Details ID: 087113 Name: AVALON AIRPORT Lat: -38.03 Lon: 144.48 Height: 10.6 m
Data from the previous 72 hours. | See also: Recent months at Avalon
Date/Time
EST
Temp
°C
App
Temp
°C
Dew
Point
Rel
Hum
%
Delta-T
°C
Wind Press
QNH
hPa
Press
MSL
hPa
Rain
since 9 am
mm
Dir
 
Spd
km/h
Gust
km/h
Spd
kts
Gust
kts
18/06:30pm 13.6 7.6 10.2 80 1.8 WSW 32 43 17 23 1014.1 1014.1 0.0
18/06:13pm 14.3 8.2 9.7 74 2.4 WSW 32 50 17 27 1013.5 1013.5 0.0
18/06:00pm 14.4 8.7 11.2 81 1.7 SSW 32 39 17 21 1013.0 1013.0 0.0
18/05:30pm 17.2 10.9 11.0 67 3.3 SW 35 52 19 28 1011.9 1011.9 0.0
18/05:21pm 18.4 12.3 10.3 59 4.3 W 33 52 18 28 1011.3 1011.3 0.0
18/05:18pm 19.6 13.9 9.8 53 5.2 W 30 52 16 28 1011.0 1011.0 0.0
18/05:00pm 20.0 15.5 9.9 52 5.4 W 24 32 13 17 1010.6 1010.6 0.0
18/04:30pm 20.3 13.9 9.5 50 5.8 W 33 44 18 24 1010.4 1010.4 0.0
18/04:00pm 21.2 13.6 9.1 46 6.4 WNW 39 50 21 27 1010.1 1010.1 0.0
18/03:30pm 21.0 14.5 8.9 46 6.4 WNW 33 41 18 22 1010.0 1010.0 0.0
18/03:17pm 21.0 14.6 8.6 45 6.5 WNW 32 50 17 27 1009.9 1009.9 0.0
18/03:00pm 22.1 16.8 9.9 46 6.6 WNW 28 41 15 22 1010.1 1010.1 0.0
18/02:30pm 20.7 14.2 9.0 47 6.2 WNW 33 43 18 23 1010.5 1010.5 0.0
18/02:00pm 21.4 16.1 9.9 48 6.2 WNW 28 41 15 22 1010.6 1010.6 0.0
18/01:30pm 20.2 15.0 8.8 48 6.0 NW 26 39 14 21 1011.1 1011.1 0.0
18/01:00pm 19.9 14.9 9.5 51 5.5 WNW 26 35 14 19 1011.4 1011.4 0.0
18/12:30pm 18.7 12.3 9.2 54 5.0 WNW 33 41 18 22 1012.2 1012.2 0.0
18/12:00pm 18.3 12.2 9.6 57 4.6 WNW 32 44 17 24 1012.8 1012.8 0.0
18/11:30am 17.8 11.5 8.9 56 4.6 WNW 32 39 17 21 1013.1 1013.1 0.0
18/11:00am 17.0 12.0 11.1 68 3.2 WNW 28 39 15 21 1013.5 1013.5 0.0
18/10:30am 15.8 10.8 10.8 72 2.7 WNW 28 39 15 21 1013.9 1013.9 0.0
18/10:00am 14.8 10.2 11.2 79 1.9 WNW 26 35 14 19 1014.0 1014.0 0.0
18/09:30am 14.6 11.6 11.9 84 1.5 WNW 19 22 10 12 1014.0 1014.0 0.0
18/09:00am 14.2 12.7 11.9 86 1.2 W 11 15 6 8 1013.9 1013.9 5.8
18/08:30am 14.0 12.9 12.0 88 1.1 NW 9 13 5 7 1013.8 1013.8 5.8
18/08:00am 13.5 12.0 11.9 90 0.9 NNW 11 13 6 7 1013.4 1013.4 5.8
18/07:30am 13.1 11.2 11.7 91 0.7 W 13 17 7 9 1013.3 1013.3 5.8
18/07:00am 12.9 10.9 11.6 92 0.7 WNW 13 15 7 8 1012.8 1012.8 5.8
18/06:30am 13.2 11.3 11.9 92 0.7 NW 13 15 7 8 1012.7 1012.7 5.8
18/06:00am 13.2 11.3 11.9 92 0.7 NW 13 17 7 9 1012.8 1012.8 5.8
18/05:30am 13.3 11.1 12.0 92 0.7 NW 15 19 8 10 1012.5 1012.5 5.8
18/05:00am 13.4 11.4 12.8 96 0.3 WNW 15 17 8 9 1012.3 1012.3 5.8
18/04:30am 13.1 11.5 12.9 99 0.1 WNW 13 15 7 8 1012.3 1012.3 5.8
18/04:00am 12.9 11.3 12.7 99 0.1 NNW 13 17 7 9 1012.3 1012.3 5.8
18/03:30am 12.7 11.4 12.5 99 0.1 N 11 13 6 7 1012.2 1012.2 5.8
18/03:00am 12.7 11.0 12.5 99 0.1 NW 13 15 7 8 1012.2 1012.2 5.8
18/02:30am 12.6 11.3 12.4 99 0.1 W 11 15 6 8 1012.7 1012.7 5.8
18/02:00am 12.6 10.9 12.4 99 0.1 WSW 13 15 7 8 1013.1 1013.1 5.8
18/01:30am 12.9 12.4 12.7 99 0.1 WSW 7 13 4 7 1013.5 1013.5 5.8
18/01:00am 12.9 11.7 12.7 99 0.1 WSW 11 13 6 7 1013.6 1013.6 5.8
18/12:30am 12.8 12.3 12.6 99 0.1 W 7 9 4 5 1014.1 1014.1 5.6
18/12:00am 12.8 11.9 12.6 99 0.1 WSW 9 13 5 7 1014.2 1014.2 5.4
 
Date/Time
EST
Temp
°C
App
Temp
°C
Dew
Point
Rel
Hum
%
Delta-T
°C
Wind Press
QNH
hPa
Press
MSL
hPa
Rain
since 9 am
mm
Dir
 
Spd
km/h
Gust
km/h
Spd
kts
Gust
kts
17/11:56pm 12.8 11.5 12.6 99 0.1 WSW 11 15 6 8 1014.3 1014.3 5.4
17/11:30pm 12.9 12.0 12.7 99 0.1 WSW 9 11 5 6 1014.7 1014.7 4.8
17/11:01pm 12.9 12.0 12.7 99 0.1 WSW 9 9 5 5 1014.9 1014.9 4.0
17/11:00pm 12.9 12.0 12.7 99 0.1 WSW 9 9 5 5 1014.9 1014.9 4.0
17/10:44pm 12.9 13.7 12.7 99 0.1 CALM 0 0 0 0 1015.1 1015.1 3.6
17/10:30pm 13.0 13.9 12.8 99 0.1 CALM 0 0 0 0 1015.1 1015.1 3.4
17/10:06pm 12.9 13.7 12.7 99 0.1 CALM 0 0 0 0 1015.5 1015.5 2.6
17/10:00pm 12.9 13.7 12.7 99 0.1 CALM 0 0 0 0 1015.4 1015.4 2.4
17/09:30pm 12.8 13.6 12.5 98 0.2 CALM 0 0 0 0 1015.5 1015.5 2.4
17/09:02pm 12.8 13.2 12.5 98 0.2 NE 2 6 1 3 1015.7 1015.7 2.4
17/09:00pm 12.8 12.8 12.5 98 0.2 NE 4 6 2 3 1015.7 1015.7 2.4
17/08:30pm 12.9 11.9 12.4 97 0.3 N 9 11 5 6 1016.1 1016.1 1.6
17/08:07pm 13.0 11.2 12.1 94 0.5 N 13 17 7 9 1016.2 1016.2 1.2
17/08:00pm 13.1 11.3 12.2 94 0.5 NNE 13 17 7 9 1016.3 1016.3 1.2
17/07:30pm 13.2 11.7 11.9 92 0.7 NNE 11 15 6 8 1016.3 1016.3 1.0
17/07:00pm 13.1 12.1 12.2 94 0.5 NNE 9 11 5 6 1016.7 1016.7 1.0
17/06:30pm 13.0 11.2 12.2 95 0.4 NE 13 17 7 9 1016.3 1016.3 1.0
17/06:00pm 13.1 11.7 12.2 94 0.5 NE 11 13 6 7 1016.5 1016.5 1.0
17/05:30pm 13.1 11.3 12.0 93 0.6 NE 13 15 7 8 1016.5 1016.5 1.0
17/05:06pm 13.3 12.2 11.9 91 0.7 ENE 9 13 5 7 1016.8 1016.8 1.0
17/05:00pm 13.2 11.7 11.8 91 0.7 E 11 13 6 7 1016.8 1016.8 1.0
17/04:40pm 13.3 12.1 11.5 89 1.0 NNW 9 11 5 6 1018.0 1018.0 0.8
17/04:30pm 13.5 12.2 11.4 87 1.1 N 9 11 5 6 1018.1 1018.1 0.6
17/04:00pm 14.1 11.4 10.5 79 1.9 NNE 15 20 8 11 1018.1 1018.1 0.2
17/03:30pm 15.4 12.1 9.5 68 3.0 NNE 17 24 9 13 1017.6 1017.6 0.0
17/03:00pm 15.4 12.5 9.5 68 3.0 E 15 17 8 9 1017.9 1017.9 0.0
17/02:30pm 15.4 13.1 9.1 66 3.2 ENE 11 15 6 8 1018.4 1018.4 0.0
17/02:00pm 15.3 13.0 9.0 66 3.2 E 11 15 6 8 1018.8 1018.8 0.0
17/01:30pm 15.1 12.4 8.8 66 3.2 ESE 13 17 7 9 1019.3 1019.3 0.0
17/01:00pm 15.4 12.3 8.9 65 3.3 E 15 19 8 10 1019.6 1019.6 0.0
17/12:30pm 15.7 11.9 8.9 64 3.5 E 19 24 10 13 1020.3 1020.3 0.0
17/12:00pm 16.4 12.4 9.1 62 3.8 E 20 26 11 14 1021.0 1021.0 0.0
17/11:30am 16.6 13.1 8.6 59 4.1 ENE 17 24 9 13 1021.9 1021.9 0.0
17/11:00am 15.7 12.1 8.4 62 3.7 E 17 22 9 12 1022.6 1022.6 0.0
17/10:30am 15.4 11.9 8.6 64 3.5 ENE 17 24 9 13 1023.2 1023.2 0.0
17/10:00am 14.3 12.9 9.7 74 2.4 NE 7 11 4 6 1023.7 1023.7 0.0
17/09:30am 13.4 12.3 9.8 79 1.8 NW 6 7 3 4 1024.0 1024.0 0.0
17/09:00am 12.3 10.4 9.1 81 1.6 NNW 9 9 5 5 1024.4 1024.4 0.0
17/08:30am 11.9 10.4 9.3 84 1.3 NW 7 9 4 5 1024.4 1024.4 0.0
17/08:00am 11.2 9.3 8.9 86 1.1 WNW 9 11 5 6 1024.2 1024.2 0.0
17/07:30am 10.6 8.7 8.9 89 0.8 NW 9 11 5 6 1023.9 1023.9 0.0
17/07:00am 10.3 8.3 8.6 89 0.8 WNW 9 11 5 6 1023.5 1023.5 0.0
17/06:30am 10.5 8.9 8.8 89 0.8 NW 7 11 4 6 1023.6 1023.6 0.0
17/06:00am 10.5 8.5 8.8 89 0.8 WNW 9 11 5 6 1023.4 1023.4 0.0
17/05:30am 10.1 8.5 8.7 91 0.7 NW 7 9 4 5 1023.4 1023.4 0.0
17/05:00am 9.8 8.1 8.4 91 0.7 NW 7 9 4 5 1023.5 1023.5 0.0
17/04:30am 9.9 8.2 8.3 90 0.8 NW 7 9 4 5 1023.5 1023.5 0.0
17/04:00am 10.1 8.4 8.5 90 0.8 W 7 9 4 5 1023.3 1023.3 0.0
17/03:30am 10.2 8.5 8.3 88 0.9 W 7 9 4 5 1023.0 1023.0 0.0
17/03:00am 10.0 8.4 8.1 88 0.9 W 6 7 3 4 1023.3 1023.3 0.0
17/02:30am 10.4 8.3 8.3 87 1.0 NNW 9 9 5 5 1023.7 1023.7 0.0
17/02:00am 11.2 9.6 8.6 84 1.3 NW 7 7 4 4 1024.2 1024.2 0.0
17/01:30am 11.0 10.6 8.2 83 1.4 CALM 0 7 0 4 1024.7 1024.7 0.0
17/01:00am 11.9 10.4 8.6 80 1.6 WSW 6 7 3 4 1025.2 1025.2 0.0
17/12:30am 12.1 10.5 8.8 80 1.6 NW 7 9 4 5 1025.5 1025.5 0.0
17/12:00am 12.6 10.8 9.4 81 1.6 WNW 9 11 5 6 1026.2 1026.2 0.0
 
Date/Time
EST
Temp
°C
App
Temp
°C
Dew
Point
Rel
Hum
%
Delta-T
°C
Wind Press
QNH
hPa
Press
MSL
hPa
Rain
since 9 am
mm
Dir
 
Spd
km/h
Gust
km/h
Spd
kts
Gust
kts
16/11:30pm 12.5 12.0 9.3 81 1.6 NNW 2 9 1 5 1026.3 1026.3 0.0
16/11:00pm 13.0 12.7 8.7 75 2.1 CALM 0 0 0 0 1026.5 1026.5 0.0
16/10:30pm 12.8 11.4 8.7 76 2.0 SSE 6 7 3 4 1026.5 1026.5 0.0
16/10:00pm 12.9 11.3 8.8 76 2.0 S 7 11 4 6 1026.7 1026.7 0.0
16/09:30pm 12.6 10.6 8.7 77 1.9 S 9 11 5 6 1026.5 1026.5 0.0
16/09:00pm 12.8 10.9 8.9 77 1.9 S 9 13 5 7 1026.5 1026.5 0.0
16/08:30pm 12.8 11.2 8.9 77 2.0 SSE 7 9 4 5 1026.6 1026.6 0.0
16/08:00pm 12.9 10.9 8.8 76 2.0 S 9 11 5 6 1026.6 1026.6 0.0
16/07:30pm 12.9 10.5 8.6 75 2.1 S 11 13 6 7 1026.4 1026.4 0.0
16/07:00pm 13.0 10.6 8.5 74 2.2 SSE 11 13 6 7 1025.8 1025.8 0.0
16/06:30pm 13.5 10.7 8.4 71 2.5 SSE 13 17 7 9 1025.5 1025.5 0.0
16/06:00pm 13.9 11.0 8.1 68 2.9 S 13 17 7 9 1025.5 1025.5 0.0
16/05:30pm 14.4 9.9 8.4 67 3.0 S 22 28 12 15 1025.1 1025.1 0.0
16/05:00pm 14.8 10.0 8.7 67 3.1 S 24 30 13 16 1025.0 1025.0 0.0
16/04:30pm 15.4 10.5 8.6 64 3.5 S 24 32 13 17 1024.9 1024.9 0.0
16/04:00pm 16.0 11.2 8.7 62 3.7 S 24 32 13 17 1024.7 1024.7 0.0
16/03:30pm 16.5 12.0 8.5 59 4.1 S 22 30 12 16 1024.7 1024.7 0.0
16/03:00pm 16.9 12.4 8.6 58 4.2 S 22 28 12 15 1024.4 1024.4 0.0
16/02:30pm 17.0 12.1 8.4 57 4.4 S 24 30 13 16 1024.1 1024.1 0.0
16/02:00pm 18.3 15.0 9.4 56 4.7 S 17 24 9 13 1024.3 1024.3 0.0
16/01:30pm 18.3 15.1 8.3 52 5.1 S 15 20 8 11 1024.6 1024.6 0.0
16/01:00pm 17.2 14.0 8.4 56 4.5 S 15 20 8 11 1024.8 1024.8 0.0
16/12:30pm 17.6 14.2 9.0 57 4.5 SW 17 24 9 13 1025.1 1025.1 0.0
16/12:00pm 17.6 14.3 9.5 59 4.2 SSW 17 22 9 12 1025.7 1025.7 0.0
16/11:30am 16.6 12.8 9.1 61 3.9 SSW 19 22 10 12 1025.7 1025.7 0.0
16/11:00am 16.9 13.3 9.8 63 3.7 SSW 19 24 10 13 1025.6 1025.6 0.0
16/10:30am 16.6 13.0 9.8 64 3.6 SW 19 24 10 13 1025.7 1025.7 0.0
16/10:00am 16.4 12.5 9.3 63 3.7 WSW 20 30 11 16 1025.6 1025.6 0.0
16/09:30am 15.7 10.7 9.4 66 3.3 WSW 26 35 14 19 1025.8 1025.8 0.0
16/09:00am 15.2 11.7 10.8 75 2.3 W 20 26 11 14 1025.4 1025.4 0.2
16/08:30am 15.1 13.0 12.4 84 1.5 WSW 15 20 8 11 1025.0 1025.0 -
16/08:00am 14.7 12.3 12.7 88 1.1 WSW 17 22 9 12 1024.3 1024.3 -
16/07:30am 14.6 13.1 13.1 91 0.8 WSW 13 17 7 9 1024.2 1024.2 -
16/07:00am 14.2 12.6 12.9 92 0.7 W 13 15 7 8 1024.0 1024.0 -
16/06:30am 14.2 12.3 12.9 92 0.7 WNW 15 20 8 11 1023.7 1023.7 -
16/06:00am 13.7 11.6 12.4 92 0.7 WNW 15 17 8 9 1023.3 1023.3 -
16/05:30am 14.0 11.5 12.4 90 0.9 WNW 17 20 9 11 1023.0 1023.0 -
16/05:00am 14.5 12.5 12.7 89 1.0 NW 15 19 8 10 1022.1 1022.1 -
16/04:30am 15.2 13.3 13.1 87 1.2 WNW 15 17 8 9 1021.6 1021.6 -
16/04:00am 15.6 13.4 13.3 86 1.3 WNW 17 22 9 12 1021.7 1021.7 -
16/03:30am 15.9 14.2 13.6 86 1.3 WNW 15 19 8 10 1021.6 1021.6 -
16/03:00am 16.3 14.3 13.8 85 1.4 W 17 22 9 12 1021.6 1021.6 0.0
16/02:30am 16.2 13.6 13.9 86 1.3 W 20 24 11 13 1021.5 1021.5 -
16/02:00am 16.1 15.6 14.8 92 0.7 WNW 11 15 6 8 1021.5 1021.5 -
16/01:30am 16.2 14.5 14.7 91 0.9 WNW 17 19 9 10 1021.5 1021.5 -
16/01:00am 16.7 14.8 14.2 85 1.4 W 17 20 9 11 1021.5 1021.5 -
16/12:30am 16.9 15.0 14.2 84 1.5 WNW 17 20 9 11 1021.5 1021.5 -
16/12:00am 16.9 15.0 14.2 84 1.5 WNW 17 22 9 12 1021.6 1021.6 -
 
Date/Time
EST
Temp
°C
App
Temp
°C
Dew
Point
Rel
Hum
%
Delta-T
°C
Wind Press
QNH
hPa
Press
MSL
hPa
Rain
since 9 am
mm
Dir
 
Spd
km/h
Gust
km/h
Spd
kts
Gust
kts
15/11:30pm 16.8 15.3 14.3 85 1.4 WNW 15 19 8 10 1021.6 1021.6 -
15/11:00pm 16.7 15.7 14.7 88 1.1 WNW 13 19 7 10 1021.6 1021.6 -
15/10:30pm 16.4 15.9 14.8 90 0.9 WNW 11 13 6 7 1021.5 1021.5 -
15/10:00pm 16.2 16.4 15.7 97 0.3 NW 9 11 5 6 1021.4 1021.4 -
15/09:30pm 15.9 15.5 15.3 96 0.3 NNW 11 13 6 7 1021.0 1021.0 -
15/09:00pm 15.8 15.8 15.2 96 0.3 W 9 11 5 6 1020.7 1020.7 0.0
15/08:30pm 15.3 16.3 14.3 94 0.6 WNW 2 7 1 4 1020.4 1020.4 -
15/08:00pm 16.1 16.4 15.1 94 0.6 WSW 7 9 4 5 1019.8 1019.8 -
15/07:30pm 16.1 15.3 15.0 93 0.6 SSW 13 15 7 8 1019.4 1019.4 -
15/07:00pm 16.4 16.0 15.1 92 0.8 SSW 11 13 6 7 1019.1 1019.1 -

Other Formats:

Comma delimited format used in spreadsheet applications
http://www.bom.gov.au/fwo/IDV60801/IDV60801.94854.axf

JavaScript Object Notation format (JSON) in row-major order
http://www.bom.gov.au/fwo/IDV60801/IDV60801.94854.json